createdAt,value
2022-08-18T00:00:20.426Z,24.76
2022-08-18T00:03:00.526Z,24.75
2022-08-18T00:05:28.086Z,24.73
2022-08-18T00:07:57.042Z,24.72
2022-08-18T00:10:23.347Z,24.69
2022-08-18T00:12:49.875Z,24.66
2022-08-18T00:15:16.370Z,24.62
2022-08-18T00:17:42.793Z,24.58
2022-08-18T00:20:09.126Z,24.57
2022-08-18T00:22:35.881Z,24.53
2022-08-18T00:25:02.160Z,24.52
2022-08-18T00:27:29.084Z,24.49
2022-08-18T00:29:55.471Z,24.45
2022-08-18T00:32:21.781Z,24.43
2022-08-18T00:34:48.223Z,24.41
2022-08-18T00:37:14.552Z,24.41
2022-08-18T00:39:47.858Z,24.41
2022-08-18T00:42:27.681Z,24.41
2022-08-18T00:44:57.308Z,24.40
2022-08-18T00:47:32.964Z,24.39
2022-08-18T00:50:12.493Z,24.40
2022-08-18T00:52:41.967Z,24.39
2022-08-18T00:55:08.368Z,24.38
2022-08-18T00:57:35.083Z,24.35
2022-08-18T01:00:01.620Z,24.33
2022-08-18T01:02:28.043Z,24.30
2022-08-18T01:04:54.568Z,24.28
2022-08-18T01:07:21.035Z,24.27
2022-08-18T01:09:47.551Z,24.24
2022-08-18T01:12:44.401Z,24.21
2022-08-18T01:15:00.257Z,24.16
2022-08-18T01:17:27.032Z,24.13
2022-08-18T01:19:53.421Z,24.08
2022-08-18T01:22:19.714Z,24.06
2022-08-18T01:24:46.328Z,24.04
2022-08-18T01:27:12.630Z,24.00
2022-08-18T01:29:42.924Z,23.98
2022-08-18T01:32:12.983Z,23.97
2022-08-18T01:34:39.272Z,23.95
2022-08-18T01:37:05.940Z,23.94
2022-08-18T01:41:25.077Z,23.92
2022-08-18T01:42:18.907Z,23.89
2022-08-18T01:44:45.387Z,23.89
2022-08-18T01:47:11.901Z,23.86
2022-08-18T01:49:38.347Z,23.84
2022-08-18T01:52:04.692Z,23.82
2022-08-18T01:54:31.095Z,23.81
2022-08-18T01:56:57.593Z,23.78
2022-08-18T01:59:23.904Z,23.75
2022-08-18T02:01:53.455Z,23.72
2022-08-18T02:04:37.103Z,23.68
2022-08-18T02:07:04.268Z,23.66
2022-08-18T02:09:30.827Z,23.64
2022-08-18T02:11:57.304Z,23.63
2022-08-18T02:14:25.006Z,23.64
2022-08-18T02:16:53.439Z,23.61
2022-08-18T02:19:26.004Z,23.60
2022-08-18T02:21:52.352Z,23.59
2022-08-18T02:24:18.739Z,23.58
2022-08-18T02:26:45.049Z,23.54
2022-08-18T02:29:11.368Z,23.51
2022-08-18T02:31:37.635Z,23.47
2022-08-18T02:34:04.047Z,23.46
2022-08-18T02:36:30.331Z,23.43
2022-08-18T02:39:00.713Z,23.38
2022-08-18T02:41:26.995Z,23.36
2022-08-18T02:43:56.113Z,23.35
2022-08-18T02:46:29.324Z,23.34
2022-08-18T02:48:57.045Z,23.31
2022-08-18T02:51:23.387Z,23.26
2022-08-18T02:53:52.516Z,23.21
2022-08-18T02:56:20.037Z,23.17
2022-08-18T02:59:06.390Z,23.13
2022-08-18T03:01:32.718Z,23.12
2022-08-18T03:03:59.092Z,23.09
2022-08-18T03:06:25.380Z,23.09
2022-08-18T03:08:51.873Z,23.08
2022-08-18T03:11:18.165Z,23.06
2022-08-18T03:13:44.967Z,23.03
2022-08-18T03:16:11.273Z,23.00
2022-08-18T03:18:37.937Z,22.97
2022-08-18T03:21:04.383Z,22.94
2022-08-18T03:23:34.200Z,22.93
2022-08-18T03:26:00.500Z,22.90
2022-08-18T03:28:26.831Z,22.88
2022-08-18T03:30:53.669Z,22.85
2022-08-18T03:33:20.157Z,22.84
2022-08-18T03:35:46.997Z,22.83
2022-08-18T03:38:13.329Z,22.82
2022-08-18T03:40:39.800Z,22.81
2022-08-18T03:43:06.065Z,22.82
2022-08-18T03:45:52.354Z,22.82
2022-08-18T03:48:18.781Z,22.81
2022-08-18T03:50:45.300Z,22.80
2022-08-18T03:53:11.837Z,22.79
2022-08-18T03:55:38.193Z,22.76
2022-08-18T03:58:05.327Z,22.72
2022-08-18T04:00:31.853Z,22.69
2022-08-18T04:02:58.776Z,22.67
2022-08-18T04:05:25.246Z,22.66
2022-08-18T04:07:51.683Z,22.65
2022-08-18T04:10:19.460Z,22.64
2022-08-18T04:12:46.196Z,22.61
2022-08-18T04:15:12.526Z,22.60
2022-08-18T04:18:03.014Z,22.57
2022-08-18T04:20:25.440Z,22.56
2022-08-18T04:22:52.077Z,22.54
2022-08-18T04:25:18.386Z,22.52
2022-08-18T04:27:44.752Z,22.50
2022-08-18T04:30:11.079Z,22.51
2022-08-18T04:32:38.039Z,22.49
2022-08-18T04:35:04.789Z,22.48
2022-08-18T04:37:31.863Z,22.49
2022-08-18T04:39:59.594Z,22.49
2022-08-18T04:42:25.911Z,22.50
2022-08-18T04:44:52.207Z,22.50
2022-08-18T04:47:18.567Z,22.50
2022-08-18T04:49:44.874Z,22.49
2022-08-18T04:52:34.067Z,22.47
2022-08-18T04:54:57.513Z,22.44
2022-08-18T04:57:23.883Z,22.45
2022-08-18T04:59:50.178Z,22.46
2022-08-18T05:02:16.939Z,22.46
2022-08-18T05:04:43.234Z,22.46
2022-08-18T05:07:09.617Z,22.48
2022-08-18T05:09:41.357Z,22.49
2022-08-18T05:12:07.963Z,22.51
2022-08-18T05:14:34.331Z,22.52
2022-08-18T05:17:00.658Z,22.53
2022-08-18T05:19:26.960Z,22.55
2022-08-18T05:21:53.456Z,22.55
2022-08-18T05:24:29.617Z,22.57
2022-08-18T05:26:59.985Z,22.60
2022-08-18T05:29:26.384Z,22.61
2022-08-18T05:31:56.864Z,22.62
2022-08-18T05:34:23.221Z,22.63
2022-08-18T05:36:49.595Z,22.64
2022-08-18T05:39:15.990Z,22.65
2022-08-18T05:41:42.579Z,22.66
2022-08-18T05:44:09.004Z,22.67
2022-08-18T05:46:35.431Z,22.67
2022-08-18T05:49:02.088Z,22.68
2022-08-18T05:51:28.534Z,22.70
2022-08-18T05:53:54.834Z,22.71
2022-08-18T05:56:21.132Z,22.72
2022-08-18T05:58:47.412Z,22.73
2022-08-18T06:01:13.682Z,22.73
2022-08-18T06:03:45.175Z,22.75
2022-08-18T06:06:13.201Z,22.76
2022-08-18T06:08:40.929Z,22.78
2022-08-18T06:11:07.747Z,22.79
2022-08-18T06:13:49.591Z,22.80
2022-08-18T06:16:18.964Z,22.85
2022-08-18T06:18:45.547Z,22.95
2022-08-18T06:21:11.911Z,23.04
2022-08-18T06:23:38.329Z,23.13
2022-08-18T06:26:04.668Z,23.19
2022-08-18T06:28:31.220Z,23.21
2022-08-18T06:30:57.649Z,23.27
2022-08-18T06:33:24.471Z,23.29
2022-08-18T06:35:51.013Z,23.32
2022-08-18T06:38:18.761Z,23.35
2022-08-18T06:40:45.678Z,23.41
2022-08-18T06:43:12.067Z,23.45
2022-08-18T06:45:40.143Z,23.47
2022-08-18T06:48:15.254Z,23.51
2022-08-18T06:50:43.622Z,23.55
2022-08-18T06:53:26.895Z,23.58
2022-08-18T06:55:54.730Z,23.61
2022-08-18T06:58:21.911Z,23.64
2022-08-18T07:00:49.251Z,23.67
2022-08-18T07:03:15.740Z,23.68
2022-08-18T07:05:42.593Z,23.75
2022-08-18T07:08:08.913Z,23.78
2022-08-18T07:10:35.178Z,23.79
2022-08-18T07:13:02.211Z,23.81
2022-08-18T07:15:28.939Z,23.88
2022-08-18T07:17:55.482Z,23.95
2022-08-18T07:20:21.978Z,24.04
2022-08-18T07:22:48.353Z,24.14
2022-08-18T07:25:17.513Z,24.19
2022-08-18T07:27:43.846Z,24.23
2022-08-18T07:30:15.741Z,24.30
2022-08-18T07:32:42.378Z,24.41
2022-08-18T07:35:08.946Z,24.44
2022-08-18T07:37:35.233Z,24.43
2022-08-18T07:40:01.954Z,24.40
2022-08-18T07:42:37.171Z,24.42
2022-08-18T07:45:14.841Z,24.50
2022-08-18T07:47:43.012Z,24.55
2022-08-18T07:50:26.971Z,24.62
2022-08-18T07:52:56.080Z,24.66
2022-08-18T07:55:22.492Z,24.69
2022-08-18T07:57:48.788Z,24.72
2022-08-18T08:00:18.772Z,24.75
2022-08-18T08:02:54.017Z,24.79
2022-08-18T08:05:21.921Z,24.86
2022-08-18T08:07:48.199Z,24.82
2022-08-18T08:10:15.241Z,24.81
2022-08-18T08:12:41.526Z,24.83
2022-08-18T08:15:07.870Z,24.85
2022-08-18T08:17:34.352Z,24.91
2022-08-18T08:20:02.049Z,24.93
2022-08-18T08:22:28.965Z,25.03
2022-08-18T08:24:56.239Z,25.21
2022-08-18T08:27:23.323Z,25.25
2022-08-18T08:29:49.975Z,25.28
2022-08-18T08:32:16.378Z,25.26
2022-08-18T08:34:42.778Z,25.25
2022-08-18T08:37:09.292Z,25.23
2022-08-18T08:39:36.949Z,25.26
2022-08-18T08:42:30.263Z,25.40
2022-08-18T08:44:59.081Z,25.38
2022-08-18T08:47:26.471Z,25.41
2022-08-18T08:49:59.032Z,25.42
2022-08-18T08:52:27.863Z,25.48
2022-08-18T08:54:55.945Z,25.51
2022-08-18T08:57:22.865Z,25.55
2022-08-18T08:59:49.161Z,25.56
2022-08-18T09:02:37.908Z,25.72
2022-08-18T09:05:08.044Z,25.72
2022-08-18T09:07:38.537Z,25.77
2022-08-18T09:10:05.073Z,25.76
2022-08-18T09:12:32.361Z,25.76
2022-08-18T09:14:59.201Z,25.79
2022-08-18T09:17:30.037Z,25.82
2022-08-18T09:20:00.700Z,25.85
2022-08-18T09:22:27.618Z,25.86
2022-08-18T09:24:55.520Z,25.85
2022-08-18T09:27:22.376Z,25.84
2022-08-18T09:29:48.962Z,25.83
2022-08-18T09:32:15.716Z,25.82
2022-08-18T09:34:45.543Z,25.83
2022-08-18T09:37:12.033Z,25.84
2022-08-18T09:39:38.524Z,25.84
2022-08-18T09:42:04.862Z,25.88
2022-08-18T09:44:31.560Z,25.93
2022-08-18T09:46:57.950Z,25.98
2022-08-18T09:49:24.306Z,25.99
2022-08-18T09:51:53.185Z,25.98
2022-08-18T09:54:20.864Z,25.96
2022-08-18T09:56:54.460Z,25.98
2022-08-18T09:59:22.112Z,26.02
2022-08-18T10:01:52.626Z,26.05
2022-08-18T10:04:21.696Z,26.08
2022-08-18T10:07:05.395Z,26.09
2022-08-18T10:09:36.675Z,26.06
2022-08-18T10:12:18.877Z,26.05
2022-08-18T10:14:45.236Z,26.03
2022-08-18T10:17:23.715Z,26.00
2022-08-18T10:22:37.184Z,25.98
2022-08-18T10:25:22.085Z,25.99
2022-08-18T10:27:49.466Z,25.97
2022-08-18T10:30:15.846Z,25.93
2022-08-18T10:32:44.179Z,25.88
2022-08-18T10:35:11.086Z,25.87
2022-08-18T10:37:37.393Z,25.90
2022-08-18T10:40:03.896Z,25.92
2022-08-18T10:45:22.113Z,25.97
2022-08-18T10:47:51.678Z,25.98
2022-08-18T10:50:18.030Z,25.99
2022-08-18T10:52:47.216Z,26.01
2022-08-18T10:55:17.947Z,26.03
2022-08-18T10:57:44.301Z,26.05
2022-08-18T11:00:11.966Z,26.05
2022-08-18T11:02:39.013Z,26.08
2022-08-18T11:05:05.349Z,26.13
2022-08-18T11:07:34.774Z,26.15
2022-08-18T11:12:47.585Z,26.19
2022-08-18T11:15:23.439Z,26.20
2022-08-18T11:17:50.151Z,26.21
2022-08-18T11:20:18.152Z,26.22
2022-08-18T11:22:44.603Z,26.23
2022-08-18T11:25:13.292Z,26.25
2022-08-18T11:27:39.879Z,26.28
2022-08-18T11:30:07.097Z,26.29
2022-08-18T11:32:34.752Z,26.30
2022-08-18T11:35:01.273Z,26.31
2022-08-18T11:37:27.555Z,26.31
2022-08-18T11:39:54.046Z,26.34
2022-08-18T11:42:25.064Z,26.35
2022-08-18T11:44:51.609Z,26.36
2022-08-18T11:47:19.096Z,26.38
2022-08-18T11:49:50.081Z,26.40
2022-08-18T11:52:30.810Z,26.42
2022-08-18T11:55:00.544Z,26.44
2022-08-18T11:57:27.261Z,26.45
2022-08-18T12:00:00.946Z,26.47
2022-08-18T12:02:27.443Z,26.46
2022-08-18T12:04:56.801Z,26.45
2022-08-18T12:07:23.389Z,26.46
2022-08-18T12:12:36.085Z,26.50
2022-08-18T12:15:11.902Z,26.49
2022-08-18T12:17:43.360Z,26.50
2022-08-18T12:20:18.979Z,26.51
2022-08-18T12:22:45.804Z,26.52
2022-08-18T12:25:12.425Z,26.54
2022-08-18T12:27:38.685Z,26.54
2022-08-18T12:30:05.105Z,26.55
2022-08-18T12:32:46.769Z,26.56
2022-08-18T12:35:16.840Z,26.56
2022-08-18T12:38:12.848Z,26.57
2022-08-18T12:40:35.456Z,26.56
2022-08-18T12:43:02.032Z,26.53
2022-08-18T12:45:29.025Z,26.50
2022-08-18T12:47:55.361Z,26.49
2022-08-18T12:50:31.834Z,26.50
2022-08-18T12:53:01.411Z,26.50
2022-08-18T12:55:29.083Z,26.51
2022-08-18T12:57:56.102Z,26.50
2022-08-18T13:00:29.090Z,26.50
2022-08-18T13:02:56.429Z,26.53
2022-08-18T13:05:27.468Z,26.58
2022-08-18T13:07:54.405Z,26.60
2022-08-18T13:10:35.583Z,26.60
2022-08-18T13:13:07.631Z,26.60
2022-08-18T13:15:35.904Z,26.62
2022-08-18T13:18:02.418Z,26.62
2022-08-18T13:20:28.970Z,26.58
2022-08-18T13:22:56.021Z,26.57
2022-08-18T13:25:32.306Z,26.54
2022-08-18T13:28:05.320Z,26.55
2022-08-18T13:30:32.854Z,26.55
2022-08-18T13:33:02.720Z,26.55
2022-08-18T13:35:38.431Z,26.54
2022-08-18T13:38:18.852Z,26.52
2022-08-18T13:40:47.945Z,26.50
2022-08-18T13:43:14.660Z,26.48
2022-08-18T13:45:41.413Z,26.46
2022-08-18T13:48:08.427Z,26.45
2022-08-18T13:50:35.231Z,26.45
2022-08-18T13:53:02.062Z,26.45
2022-08-18T13:55:28.463Z,26.44
2022-08-18T13:57:56.527Z,26.43
2022-08-18T14:00:29.714Z,26.43
2022-08-18T14:02:56.812Z,26.43
2022-08-18T14:05:50.828Z,26.42
2022-08-18T14:08:09.452Z,26.40
2022-08-18T14:10:36.368Z,26.39
2022-08-18T14:13:20.015Z,26.39
2022-08-18T14:15:53.552Z,26.38
2022-08-18T14:18:28.908Z,26.38
2022-08-18T14:20:57.255Z,26.38
2022-08-18T14:23:27.923Z,26.38
2022-08-18T14:26:00.143Z,26.38
2022-08-18T14:28:26.681Z,26.37
2022-08-18T14:30:54.614Z,26.39
2022-08-18T14:33:21.392Z,26.41
2022-08-18T14:36:06.226Z,26.46
2022-08-18T14:38:36.102Z,26.49
2022-08-18T14:41:02.399Z,26.51
2022-08-18T14:43:29.041Z,26.54
2022-08-18T14:46:15.606Z,26.58
2022-08-18T14:48:42.494Z,26.62
2022-08-18T14:51:09.516Z,26.64
2022-08-18T14:53:37.022Z,26.65
2022-08-18T14:56:03.948Z,26.67
2022-08-18T14:58:30.509Z,26.66
2022-08-18T15:00:56.838Z,26.69
2022-08-18T15:03:31.213Z,26.69
2022-08-18T15:05:57.950Z,26.69
2022-08-18T15:08:25.635Z,26.70
2022-08-18T15:10:53.143Z,26.71
2022-08-18T15:13:20.010Z,26.72
2022-08-18T15:15:51.875Z,26.73
2022-08-18T15:18:22.645Z,26.74
2022-08-18T15:20:49.383Z,26.75
2022-08-18T15:23:15.807Z,26.76
2022-08-18T15:25:42.287Z,26.76
2022-08-18T15:28:16.379Z,26.78
2022-08-18T15:30:42.930Z,26.78
2022-08-18T15:33:09.453Z,26.79
2022-08-18T15:35:44.170Z,26.81
2022-08-18T15:38:10.741Z,26.82
2022-08-18T15:40:41.587Z,26.82
2022-08-18T15:43:10.615Z,26.83
2022-08-18T15:45:37.012Z,26.83
2022-08-18T15:48:09.834Z,26.85
2022-08-18T15:50:39.184Z,26.85
2022-08-18T15:53:09.203Z,26.85
2022-08-18T15:55:37.490Z,26.85
2022-08-18T15:58:04.025Z,26.86
2022-08-18T16:00:37.568Z,26.85
2022-08-18T16:03:04.659Z,26.85
2022-08-18T16:05:35.379Z,26.83
2022-08-18T16:08:01.978Z,26.83
2022-08-18T16:10:28.291Z,26.82
2022-08-18T16:12:54.796Z,26.81
2022-08-18T16:15:21.460Z,26.82
2022-08-18T16:17:48.123Z,26.81
2022-08-18T16:20:14.442Z,26.81
2022-08-18T16:22:41.019Z,26.81
2022-08-18T16:25:07.338Z,26.79
2022-08-18T16:27:33.771Z,26.79
2022-08-18T16:30:00.062Z,26.79
2022-08-18T16:32:26.687Z,26.79
2022-08-18T16:34:52.990Z,26.78
2022-08-18T16:37:19.442Z,26.78
2022-08-18T16:39:45.915Z,26.78
2022-08-18T16:42:12.286Z,26.78
2022-08-18T16:44:38.571Z,26.77
2022-08-18T16:47:04.935Z,26.77
2022-08-18T16:49:31.255Z,26.77
2022-08-18T16:51:57.547Z,26.77
2022-08-18T16:54:23.951Z,26.76
2022-08-18T16:56:50.468Z,26.76
2022-08-18T16:59:16.765Z,26.76
2022-08-18T17:01:48.599Z,26.73
2022-08-18T17:04:20.855Z,26.73
2022-08-18T17:06:48.083Z,26.73
2022-08-18T17:09:14.511Z,26.71
2022-08-18T17:11:48.003Z,26.71
2022-08-18T17:14:17.833Z,26.69
2022-08-18T17:16:45.966Z,26.69
2022-08-18T17:19:12.318Z,26.67
2022-08-18T17:21:39.011Z,26.67
2022-08-18T17:24:05.434Z,26.66
2022-08-18T17:26:32.213Z,26.65
2022-08-18T17:28:58.543Z,26.63
2022-08-18T17:31:24.925Z,26.64
2022-08-18T17:33:51.291Z,26.63
2022-08-18T17:36:17.600Z,26.62
2022-08-18T17:38:43.906Z,26.61
2022-08-18T17:41:10.275Z,26.61
2022-08-18T17:43:36.703Z,26.60
2022-08-18T17:46:03.027Z,26.59
2022-08-18T17:48:29.324Z,26.58
2022-08-18T17:50:55.638Z,26.57
2022-08-18T17:53:21.950Z,26.56
2022-08-18T17:55:48.253Z,26.56
2022-08-18T17:58:14.619Z,26.54
2022-08-18T18:00:41.102Z,26.53
2022-08-18T18:03:09.046Z,26.52
2022-08-18T18:05:37.947Z,26.51
2022-08-18T18:08:04.302Z,26.49
2022-08-18T18:10:30.703Z,26.49
2022-08-18T18:12:57.000Z,26.48
2022-08-18T18:15:27.800Z,26.47
2022-08-18T18:17:54.652Z,26.44
2022-08-18T18:20:21.074Z,26.43
2022-08-18T18:22:47.387Z,26.41
2022-08-18T18:25:15.772Z,26.40
2022-08-18T18:27:42.146Z,26.38
2022-08-18T18:30:08.551Z,26.37
2022-08-18T18:32:34.834Z,26.35
2022-08-18T18:35:01.103Z,26.33
2022-08-18T18:37:27.398Z,26.31
2022-08-18T18:39:53.828Z,26.30
2022-08-18T18:42:20.299Z,26.30
2022-08-18T18:44:46.834Z,26.28
2022-08-18T18:47:13.199Z,26.26
2022-08-18T18:49:39.535Z,26.25
2022-08-18T18:52:05.978Z,26.23
2022-08-18T18:54:32.265Z,26.22
2022-08-18T18:56:58.690Z,26.20
2022-08-18T18:59:25.024Z,26.17
2022-08-18T19:01:51.499Z,26.17
2022-08-18T19:04:17.876Z,26.15
2022-08-18T19:06:44.202Z,26.14
2022-08-18T19:09:10.563Z,26.13
2022-08-18T19:11:36.852Z,26.10
2022-08-18T19:14:03.323Z,26.09
2022-08-18T19:16:33.727Z,26.07
2022-08-18T19:19:38.109Z,26.06
2022-08-18T19:22:03.728Z,26.04
2022-08-18T19:24:32.455Z,26.02
2022-08-18T19:26:59.047Z,26.00
2022-08-18T19:29:25.366Z,25.99
2022-08-18T19:31:51.654Z,25.96
2022-08-18T19:34:18.265Z,25.94
2022-08-18T19:36:44.544Z,25.93
2022-08-18T19:39:11.122Z,25.91
2022-08-18T19:41:39.349Z,25.89
2022-08-18T19:44:05.846Z,25.86
2022-08-18T19:46:32.132Z,25.83
2022-08-18T19:49:01.564Z,25.80
2022-08-18T19:51:28.085Z,25.77
2022-08-18T19:53:58.681Z,25.73
2022-08-18T19:56:25.046Z,25.70
2022-08-18T19:59:15.774Z,25.66
2022-08-18T20:01:45.834Z,25.62
2022-08-18T20:04:12.520Z,25.60
2022-08-18T20:06:38.786Z,25.59
2022-08-18T20:09:08.915Z,25.59
2022-08-18T20:11:42.543Z,25.56
2022-08-18T20:14:13.953Z,25.52
2022-08-18T20:16:44.029Z,25.47
2022-08-18T20:19:16.339Z,25.42
2022-08-18T20:21:42.962Z,25.38
2022-08-18T20:24:09.401Z,25.34
2022-08-18T20:26:35.914Z,25.30
2022-08-18T20:29:02.891Z,25.27
2022-08-18T20:31:30.067Z,25.27
2022-08-18T20:33:56.678Z,25.25
2022-08-18T20:36:23.036Z,25.23
2022-08-18T20:38:49.321Z,25.21
2022-08-18T20:41:23.504Z,25.16
2022-08-18T20:43:50.251Z,25.12
2022-08-18T20:46:16.830Z,25.08
2022-08-18T20:48:43.439Z,25.05
2022-08-18T20:51:09.794Z,25.05
2022-08-18T20:53:36.776Z,25.04
2022-08-18T20:56:12.844Z,25.01
2022-08-18T20:58:51.573Z,24.99
2022-08-18T21:01:18.251Z,24.96
2022-08-18T21:03:44.697Z,24.94
2022-08-18T21:06:11.600Z,24.91
2022-08-18T21:08:38.517Z,24.89
2022-08-18T21:11:04.921Z,24.88
2022-08-18T21:13:31.338Z,24.88
2022-08-18T21:15:57.839Z,24.86
2022-08-18T21:18:24.406Z,24.84
2022-08-18T21:20:51.274Z,24.72
2022-08-18T21:23:17.968Z,24.78
2022-08-18T21:25:45.035Z,24.75
2022-08-18T21:28:11.479Z,24.74
2022-08-18T21:30:41.002Z,24.71
2022-08-18T21:33:08.272Z,24.67
2022-08-18T21:35:34.816Z,24.65
2022-08-18T21:38:01.473Z,24.63
2022-08-18T21:40:30.073Z,24.61
2022-08-18T21:42:56.601Z,24.58
2022-08-18T21:45:22.954Z,24.55
2022-08-18T21:47:49.496Z,24.51
2022-08-18T21:50:15.836Z,24.48
2022-08-18T21:52:42.095Z,24.46
2022-08-18T21:55:08.422Z,24.44
2022-08-18T21:57:34.826Z,24.42
2022-08-18T22:00:01.278Z,24.40
2022-08-18T22:02:27.597Z,24.35
2022-08-18T22:04:54.084Z,24.31
2022-08-18T22:07:35.331Z,24.28
2022-08-18T22:10:02.833Z,24.25
2022-08-18T22:12:31.932Z,24.21
2022-08-18T22:14:58.216Z,24.20
2022-08-18T22:17:24.560Z,24.17
2022-08-18T22:19:51.062Z,24.14
2022-08-18T22:22:17.677Z,24.12
2022-08-18T22:24:44.243Z,24.10
2022-08-18T22:27:10.691Z,24.06
2022-08-18T22:29:37.034Z,24.04
2022-08-18T22:32:12.196Z,24.01
2022-08-18T22:34:38.584Z,23.98
2022-08-18T22:37:04.985Z,23.96
2022-08-18T22:39:31.290Z,23.93
2022-08-18T22:41:57.592Z,23.91
2022-08-18T22:44:23.891Z,23.89
2022-08-18T22:46:50.204Z,23.87
2022-08-18T22:49:16.493Z,23.84
2022-08-18T22:51:42.963Z,23.83
2022-08-18T22:54:09.255Z,23.83
2022-08-18T22:56:35.536Z,23.82
2022-08-18T22:59:15.632Z,23.82
2022-08-18T23:01:43.674Z,23.82
2022-08-18T23:04:10.409Z,23.81
2022-08-18T23:06:36.779Z,23.80
2022-08-18T23:09:03.143Z,23.79
2022-08-18T23:11:29.472Z,23.78
2022-08-18T23:13:55.787Z,23.78
2022-08-18T23:16:31.755Z,23.77
2022-08-18T23:18:58.633Z,23.76
2022-08-18T23:21:34.052Z,23.77
2022-08-18T23:24:02.031Z,23.77
2022-08-18T23:26:29.623Z,23.78
2022-08-18T23:28:56.916Z,23.80
2022-08-18T23:31:23.372Z,23.79
2022-08-18T23:33:49.851Z,23.79
2022-08-18T23:36:16.165Z,23.80
2022-08-18T23:38:42.515Z,23.79
2022-08-18T23:41:08.799Z,23.78
2022-08-18T23:43:38.225Z,23.79
2022-08-18T23:46:04.598Z,23.78
2022-08-18T23:48:30.937Z,23.77
2022-08-18T23:50:57.271Z,23.78
2022-08-18T23:53:23.632Z,23.69
2022-08-18T23:55:49.906Z,23.76
2022-08-18T23:58:16.219Z,23.77
